Time;durP1;ratioP1;P1;durP2;ratioP2;P2;SDS_P1;SDS_P2;PMS_P1;PMS_P2;Temp;Humidity;BMP_temperature;BMP_pressure;BME280_temperature;BME280_humidity;BME280_pressure;Samples;Min_cycle;Max_cycle;Signal;HPM_P1;HPM_P2
2022/05/26 00:01:50;;;;;;;2.43;2.23;;;;;;;9.73;100.00;100788.78;4949770;28;20222;-75
2022/05/26 00:04:17;;;;;;;2.50;1.80;;;;;;;9.66;100.00;100793.25;4970108;28;20227;-75
2022/05/26 00:06:43;;;;;;;2.97;2.03;;;;;;;9.76;100.00;100787.84;4963361;28;20207;-75
2022/05/26 00:09:10;;;;;;;2.17;1.97;;;;;;;9.78;100.00;100781.75;4962441;28;20212;-75
2022/05/26 00:11:38;;;;;;;1.90;1.80;;;;;;;9.72;100.00;100788.81;4970599;28;20205;-76
2022/05/26 00:14:08;;;;;;;2.00;1.80;;;;;;;9.75;100.00;100786.16;4976587;28;20730;-75
2022/05/26 00:16:36;;;;;;;2.00;1.80;;;;;;;9.81;100.00;100783.41;4974591;28;20207;-75
2022/05/26 00:19:03;;;;;;;1.70;1.60;;;;;;;9.80;100.00;100787.78;4977076;28;20206;-75
2022/05/26 00:21:30;;;;;;;1.83;1.73;;;;;;;9.80;100.00;100782.56;4975773;28;20285;-75
2022/05/26 00:23:57;;;;;;;1.70;1.60;;;;;;;9.86;100.00;100785.03;4966356;28;20739;-75
2022/05/26 00:26:24;;;;;;;1.80;1.70;;;;;;;9.86;100.00;100789.38;4959272;28;20203;-75
2022/05/26 00:28:51;;;;;;;2.37;1.83;;;;;;;9.95;100.00;100783.13;4952582;28;20669;-75
2022/05/26 00:31:18;;;;;;;3.20;1.73;;;;;;;9.98;100.00;100783.94;4964637;28;20201;-75
2022/05/26 00:33:46;;;;;;;1.70;1.60;;;;;;;9.99;100.00;100787.38;4970577;28;20218;-76
2022/05/26 00:36:15;;;;;;;1.80;1.70;;;;;;;10.09;100.00;100788.06;4967930;28;20200;-75
2022/05/26 00:38:42;;;;;;;1.77;1.60;;;;;;;10.18;100.00;100788.72;4967438;28;20215;-75
2022/05/26 00:41:12;;;;;;;3.67;1.83;;;;;;;10.17;100.00;100779.19;4963498;28;20213;-75
2022/05/26 00:43:41;;;;;;;1.60;1.50;;;;;;;10.27;100.00;100777.22;4961244;28;20220;-75
2022/05/26 00:46:14;;;;;;;1.60;1.50;;;;;;;10.29;100.00;100780.66;4938276;28;20684;-75
2022/05/26 00:48:46;;;;;;;1.83;1.70;;;;;;;10.37;100.00;100786.56;4972987;28;20205;-76
2022/05/26 00:51:16;;;;;;;1.60;1.50;;;;;;;10.47;100.00;100784.63;4974585;28;20206;-76
2022/05/26 00:53:47;;;;;;;4.27;1.50;;;;;;;10.50;100.00;100787.19;4976510;28;20214;-76
2022/05/26 00:56:18;;;;;;;2.00;1.50;;;;;;;10.53;100.00;100784.47;4967274;28;20558;-75
2022/05/26 00:58:49;;;;;;;1.40;1.30;;;;;;;10.57;100.00;100790.47;4957852;28;20217;-75
2022/05/26 01:01:16;;;;;;;1.50;1.40;;;;;;;10.63;100.00;100792.94;4973556;28;20220;-75
2022/05/26 01:03:48;;;;;;;1.30;1.20;;;;;;;10.72;100.00;100782.28;4976013;28;20264;-75
2022/05/26 01:06:19;;;;;;;1.23;1.13;;;;;;;10.76;100.00;100788.28;4973021;28;20202;-75
2022/05/26 01:08:52;;;;;;;1.30;1.20;;;;;;;10.76;100.00;100790.91;4960655;28;20281;-76
2022/05/26 01:11:19;;;;;;;1.40;1.30;;;;;;;10.79;100.00;100793.44;4973609;28;20256;-76
2022/05/26 01:13:50;;;;;;;1.30;1.20;;;;;;;10.82;100.00;100788.16;4973693;28;20225;-75
2022/05/26 01:16:30;;;;;;;1.47;1.03;;;;;;;10.91;100.00;100787.06;4974518;28;20198;-75
2022/05/26 01:19:06;;;;;;;1.40;1.30;;;;;;;10.90;100.00;100783.59;4979730;28;20604;-75
2022/05/26 01:21:40;;;;;;;2.30;1.07;;;;;;;11.00;100.00;100776.41;4954348;28;20681;-75
2022/05/26 01:24:26;;;;;;;1.37;1.27;;;;;;;11.06;100.00;100776.22;4971709;28;20225;-76
2022/05/26 01:27:24;;;;;;;1.37;1.27;;;;;;;11.06;100.00;100778.84;4956270;28;20567;-76
2022/05/26 01:30:13;;;;;;;1.60;1.50;;;;;;;11.08;100.00;100773.56;4971448;28;20219;-76
2022/05/26 01:33:10;;;;;;;1.83;1.00;;;;;;;11.16;100.00;100775.09;4967645;28;20195;-76
2022/05/26 01:35:42;;;;;;;1.20;1.10;;;;;;;11.17;100.00;100776.81;4947152;28;20216;-76
2022/05/26 01:38:20;;;;;;;1.80;1.20;;;;;;;11.21;100.00;100774.13;4970463;28;20206;-76
2022/05/26 01:40:55;;;;;;;1.33;1.10;;;;;;;11.27;100.00;100776.56;4968117;28;20566;-76
2022/05/26 01:43:26;;;;;;;1.03;1.00;;;;;;;11.18;100.00;100777.66;4973645;28;20284;-76
2022/05/26 01:46:06;;;;;;;1.00;0.97;;;;;;;11.23;100.00;100777.56;4972483;28;20205;-76
2022/05/26 01:48:43;;;;;;;1.73;1.07;;;;;;;11.24;100.00;100780.13;4971997;28;20210;-75
2022/05/26 01:51:17;;;;;;;1.70;1.10;;;;;;;11.23;100.00;100788.84;4965988;28;20201;-76
2022/05/26 01:53:56;;;;;;;1.50;1.00;;;;;;;11.24;100.00;100774.03;4971371;28;20225;-75
2022/05/26 01:56:29;;;;;;;1.20;0.97;;;;;;;11.28;100.00;100779.16;4959166;28;20568;-76
2022/05/26 01:59:01;;;;;;;0.97;0.97;;;;;;;11.32;100.00;100779.91;4957843;28;20241;-76
2022/05/26 02:01:31;;;;;;;1.13;1.03;;;;;;;11.34;100.00;100775.50;4963253;28;20272;-75
2022/05/26 02:04:02;;;;;;;0.90;0.90;;;;;;;11.30;100.00;100779.09;4953193;28;20236;-76
2022/05/26 02:06:32;;;;;;;2.20;1.13;;;;;;;11.32;100.00;100783.38;4977642;28;20198;-76
2022/05/26 02:09:05;;;;;;;1.23;1.10;;;;;;;11.35;100.00;100775.47;4972088;28;20202;-76
2022/05/26 02:11:33;;;;;;;0.97;0.90;;;;;;;11.35;100.00;100778.06;4953026;28;20190;-76
2022/05/26 02:14:03;;;;;;;1.50;1.10;;;;;;;11.34;100.00;100779.00;4963599;28;20864;-76
2022/05/26 02:16:46;;;;;;;1.20;0.90;;;;;;;11.40;100.00;100777.09;4959061;28;20202;-75
2022/05/26 02:19:19;;;;;;;1.63;0.90;;;;;;;11.40;100.00;100771.88;4972087;28;20234;-76
2022/05/26 02:21:50;;;;;;;1.03;0.90;;;;;;;11.46;100.00;100771.72;4973462;28;20686;-75
2022/05/26 02:24:23;;;;;;;0.70;0.70;;;;;;;11.45;100.00;100772.59;4960211;28;20708;-76
2022/05/26 02:26:50;;;;;;;1.77;0.90;;;;;;;11.47;100.00;100773.44;4935161;29;20561;-76
2022/05/26 02:32:04;;;;;;;2.03;1.07;;;;;;;11.50;100.00;100781.16;4973382;28;20601;-76
2022/05/26 02:34:33;;;;;;;1.37;0.90;;;;;;;11.53;100.00;100771.50;4951248;28;20225;-76
2022/05/26 02:37:00;;;;;;;0.77;0.77;;;;;;;11.54;100.00;100773.22;4969460;28;20203;-76
2022/05/26 02:39:27;;;;;;;2.00;0.80;;;;;;;11.63;100.00;100764.28;4957929;28;20209;-76
2022/05/26 02:41:55;;;;;;;0.90;0.80;;;;;;;11.61;100.00;100768.69;4973033;28;20204;-76
2022/05/26 02:44:22;;;;;;;0.90;0.80;;;;;;;11.63;100.00;100763.44;4951488;28;20689;-76
2022/05/26 02:46:59;;;;;;;0.87;0.83;;;;;;;11.57;100.00;100769.66;4960013;28;20206;-76
2022/05/26 02:53:01;;;;;;;1.07;0.97;;;;;;;11.56;98.92;100775.78;4924949;28;20228;-76
2022/05/26 02:55:40;;;;;;;1.73;0.90;;;;;;;11.58;98.40;100778.38;4976971;28;20213;-76
2022/05/26 02:58:14;;;;;;;1.07;0.90;;;;;;;11.58;98.18;100783.59;4970684;28;20531;-76
2022/05/26 03:00:51;;;;;;;1.00;0.90;;;;;;;11.59;97.92;100783.56;4967260;28;20205;-76
2022/05/26 03:03:23;;;;;;;2.33;1.00;;;;;;;11.67;100.00;100773.72;4971944;28;20556;-76
2022/05/26 03:05:56;;;;;;;1.17;0.80;;;;;;;11.69;100.00;100776.28;4965155;28;20207;-76
2022/05/26 03:08:28;;;;;;;1.33;0.90;;;;;;;11.70;100.00;100775.41;4961910;28;20219;-76
2022/05/26 03:11:04;;;;;;;0.97;0.87;;;;;;;11.71;99.22;100775.38;4958301;28;20200;-76
2022/05/26 03:13:31;;;;;;;0.77;0.77;;;;;;;11.74;99.01;100779.63;4963082;28;20245;-76
2022/05/26 03:15:57;;;;;;;0.97;0.73;;;;;;;11.76;98.19;100775.22;4969578;28;20748;-76
2022/05/26 03:18:24;;;;;;;0.80;0.80;;;;;;;11.78;98.28;100769.94;4972293;28;20219;-76
2022/05/26 03:20:51;;;;;;;2.20;0.97;;;;;;;11.79;96.60;100782.13;4971570;28;20194;-76
2022/05/26 03:23:18;;;;;;;1.43;0.90;;;;;;;11.82;97.37;100775.06;4972036;28;20211;-76
2022/05/26 03:25:45;;;;;;;1.53;0.70;;;;;;;11.84;96.99;100770.63;4967626;28;20194;-77
2022/05/26 03:28:11;;;;;;;1.00;0.70;;;;;;;11.86;96.99;100778.44;4969275;28;20257;-76
2022/05/26 03:30:38;;;;;;;2.10;0.90;;;;;;;11.90;94.41;100782.66;4949659;28;20207;-76
2022/05/26 03:33:05;;;;;;;0.60;0.60;;;;;;;11.92;93.92;100781.75;4974642;28;20566;-76
2022/05/26 03:41:01;;;;;;;0.80;0.80;;;;;;;12.09;93.58;100780.41;4949619;28;20286;-76
2022/05/26 03:43:33;;;;;;;1.60;0.93;;;;;;;12.11;91.43;100789.03;4970078;28;20226;-76
2022/05/26 03:46:01;;;;;;;0.80;0.70;;;;;;;12.12;90.55;100791.63;4980020;28;20202;-76
2022/05/26 03:48:28;;;;;;;1.73;1.00;;;;;;;12.18;90.73;100797.56;4966974;28;20197;-76
2022/05/26 03:50:55;;;;;;;2.23;0.80;;;;;;;12.21;91.33;100795.72;4956643;28;20655;-76
2022/05/26 03:53:23;;;;;;;1.10;0.87;;;;;;;12.25;90.59;100799.09;4965033;28;20560;-76
2022/05/26 03:55:49;;;;;;;1.30;0.87;;;;;;;12.29;90.58;100806.81;4966127;28;20204;-76
2022/05/26 03:58:17;;;;;;;0.80;0.80;;;;;;;12.35;89.52;100808.38;4970776;28;20215;-76
2022/05/26 04:00:44;;;;;;;0.70;0.70;;;;;;;12.41;88.74;100802.09;4951864;28;20263;-77
2022/05/26 04:03:10;;;;;;;0.90;0.80;;;;;;;12.44;88.42;100802.00;4968921;28;20236;-76
2022/05/26 04:05:37;;;;;;;1.00;0.87;;;;;;;12.52;88.20;100812.22;4972999;28;20218;-76
2022/05/26 04:08:03;;;;;;;1.27;0.87;;;;;;;12.56;88.32;100811.19;4970571;28;20547;-76
2022/05/26 04:10:31;;;;;;;0.87;0.80;;;;;;;12.62;89.09;100817.09;4967319;28;20202;-76
2022/05/26 04:12:57;;;;;;;0.60;0.60;;;;;;;12.69;89.93;100820.38;4963705;28;20201;-76
2022/05/26 04:15:24;;;;;;;3.03;0.87;;;;;;;12.76;88.78;100821.91;4963377;28;20231;-76
2022/05/26 04:17:51;;;;;;;0.90;0.70;;;;;;;12.81;87.85;100816.53;4971966;28;20288;-76
2022/05/26 04:20:20;;;;;;;0.60;0.60;;;;;;;12.88;88.40;100815.41;4971881;28;20205;-76
2022/05/26 04:22:46;;;;;;;1.87;0.83;;;;;;;12.95;86.31;100823.94;4975968;28;20200;-76
2022/05/26 04:25:14;;;;;;;1.37;0.77;;;;;;;13.03;86.65;100820.16;4969995;28;20224;-76
2022/05/26 04:27:42;;;;;;;0.63;0.60;;;;;;;13.10;86.63;100818.16;4976279;28;20621;-76
2022/05/26 04:30:10;;;;;;;0.70;0.70;;;;;;;13.14;85.09;100829.38;4973693;28;20204;-76
2022/05/26 04:32:39;;;;;;;0.97;0.80;;;;;;;13.20;86.06;100823.97;4955668;28;20207;-76
2022/05/26 04:35:06;;;;;;;0.70;0.60;;;;;;;13.23;85.53;100827.34;4979707;23;20291;-77
2022/05/26 04:37:34;;;;;;;5.00;0.93;;;;;;;13.28;84.79;100824.56;4980825;28;20613;-77
2022/05/26 04:40:00;;;;;;;1.10;0.70;;;;;;;13.37;83.92;100831.28;4975660;28;20658;-77
2022/05/26 04:42:28;;;;;;;0.80;0.77;;;;;;;13.42;81.65;100834.56;4975671;28;20236;-77
2022/05/26 04:44:56;;;;;;;0.93;0.80;;;;;;;13.49;83.72;100836.09;4975176;28;20248;-77
2022/05/26 04:47:22;;;;;;;1.10;0.77;;;;;;;13.58;85.03;100841.00;4974205;28;20221;-77
2022/05/26 04:49:49;;;;;;;2.20;0.80;;;;;;;13.63;83.47;100846.06;5004645;23;20607;-73
2022/05/26 04:52:19;;;;;;;0.70;0.70;;;;;;;13.68;83.48;100846.75;5009042;28;20219;-73
2022/05/26 04:54:46;;;;;;;0.70;0.70;;;;;;;13.76;83.80;100841.28;5007648;28;20213;-74
2022/05/26 04:57:14;;;;;;;2.00;0.60;;;;;;;13.83;82.47;100840.13;5010854;28;20203;-73
2022/05/26 04:59:41;;;;;;;0.60;0.60;;;;;;;13.91;82.73;100845.97;5008012;28;20197;-73
2022/05/26 05:02:12;;;;;;;0.70;0.70;;;;;;;13.95;80.57;100851.94;5011037;28;20283;-70
2022/05/26 05:04:40;;;;;;;2.67;0.70;;;;;;;14.07;81.74;100851.50;5011214;28;20216;-70
2022/05/26 05:07:08;;;;;;;2.60;0.50;;;;;;;14.15;80.88;100852.03;5011328;28;20196;-70
2022/05/26 05:09:34;;;;;;;0.57;0.57;;;;;;;14.23;81.95;100854.41;5010361;28;20721;-71
2022/05/26 05:12:01;;;;;;;0.50;0.50;;;;;;;14.31;79.44;100854.94;5013002;28;20207;-71
2022/05/26 05:14:27;;;;;;;3.27;0.80;;;;;;;14.41;80.07;100858.09;5014979;28;20209;-70
2022/05/26 05:16:53;;;;;;;1.13;0.70;;;;;;;14.51;80.87;100854.19;5014924;28;20204;-73
2022/05/26 05:19:21;;;;;;;0.73;0.60;;;;;;;14.58;77.56;100860.06;5014634;28;20218;-71
2022/05/26 05:21:53;;;;;;;0.90;0.60;;;;;;;14.64;76.84;100866.88;5015080;28;20195;-71
2022/05/26 05:24:23;;;;;;;1.77;0.70;;;;;;;14.72;75.43;100864.78;5014711;28;20611;-72
2022/05/26 05:27:00;;;;;;;0.60;0.60;;;;;;;14.77;76.32;100870.69;5015429;28;20209;-72
2022/05/26 05:29:31;;;;;;;0.60;0.60;;;;;;;14.84;76.22;100868.69;5014560;28;20254;-72
2022/05/26 05:32:02;;;;;;;0.60;0.60;;;;;;;14.92;76.92;100867.47;5015233;28;20496;-71
2022/05/26 05:34:35;;;;;;;0.70;0.70;;;;;;;15.01;77.39;100874.13;5014405;28;20205;-71
2022/05/26 05:37:02;;;;;;;0.73;0.67;;;;;;;15.04;75.03;100874.00;5015041;28;20684;-73
2022/05/26 05:39:29;;;;;;;0.77;0.70;;;;;;;15.08;74.29;100879.97;5014806;28;20270;-71
2022/05/26 05:41:56;;;;;;;1.53;0.60;;;;;;;15.10;73.44;100891.28;5016065;28;20212;-72
2022/05/26 05:44:23;;;;;;;2.43;0.77;;;;;;;15.14;73.75;100892.84;5014837;28;20801;-72
2022/05/26 05:46:57;;;;;;;0.60;0.60;;;;;;;15.20;73.37;100887.34;5015157;28;20203;-72
2022/05/26 05:49:26;;;;;;;3.73;0.70;;;;;;;15.30;73.60;100893.06;5014900;28;20216;-72
2022/05/26 05:51:55;;;;;;;0.77;0.77;;;;;;;15.40;75.23;100885.66;4996978;28;20359;-72
2022/05/26 05:54:22;;;;;;;0.70;0.70;;;;;;;15.45;71.53;100900.31;5013985;28;20192;-71
2022/05/26 05:56:49;;;;;;;2.17;0.70;;;;;;;15.52;72.71;100896.50;5009306;28;20669;-72
2022/05/26 05:59:16;;;;;;;0.60;0.60;;;;;;;15.67;74.34;100894.13;5014812;28;20211;-71
2022/05/26 06:01:43;;;;;;;0.70;0.70;;;;;;;15.76;73.22;100893.78;5014561;28;20211;-73
2022/05/26 06:04:09;;;;;;;0.70;0.70;;;;;;;15.84;73.24;100899.53;5014219;28;20302;-72
2022/05/26 06:06:37;;;;;;;0.50;0.50;;;;;;;15.90;72.11;100896.66;5014347;28;20223;-72
2022/05/26 06:09:05;;;;;;;0.90;0.67;;;;;;;16.00;71.07;100906.78;5014278;28;20759;-72
2022/05/26 06:11:33;;;;;;;1.57;0.53;;;;;;;16.06;71.25;100901.25;5013478;28;20208;-72
2022/05/26 06:14:00;;;;;;;0.60;0.60;;;;;;;16.17;70.79;100912.13;5014855;28;20256;-73
2022/05/26 06:16:27;;;;;;;1.33;0.60;;;;;;;16.20;68.52;100916.38;5013722;28;20801;-73
2022/05/26 06:18:54;;;;;;;0.90;0.77;;;;;;;16.33;71.79;100908.81;5013882;28;20200;-72
2022/05/26 06:21:20;;;;;;;0.80;0.50;;;;;;;16.37;69.90;100915.63;5006717;28;20289;-73
2022/05/26 06:23:48;;;;;;;0.50;0.50;;;;;;;16.41;68.60;100909.28;5015294;28;20489;-73
2022/05/26 06:26:16;;;;;;;0.40;0.40;;;;;;;16.46;69.64;100910.81;5013629;28;20223;-72
2022/05/26 06:31:25;;;;;;;0.77;0.60;;;;;;;16.61;66.23;100914.50;4982738;28;20561;-73
2022/05/26 06:39:20;;;;;;;1.50;0.60;;;;;;;16.96;66.50;100922.53;5012213;28;20209;-73
2022/05/26 06:44:33;;;;;;;0.60;0.60;;;;;;;17.05;65.10;100923.03;5013334;28;20208;-71
2022/05/26 06:46:59;;;;;;;0.73;0.50;;;;;;;17.11;64.67;100926.19;5014232;28;20201;-73
2022/05/26 06:49:26;;;;;;;0.77;0.70;;;;;;;17.22;65.14;100916.00;5013338;28;20208;-73
2022/05/26 06:51:52;;;;;;;0.50;0.50;;;;;;;17.41;66.34;100915.94;5012803;28;20573;-72
2022/05/26 06:54:19;;;;;;;1.00;0.57;;;;;;;17.52;63.16;100922.44;5013305;28;20243;-72
2022/05/26 06:56:45;;;;;;;0.70;0.53;;;;;;;17.58;65.97;100911.59;5014190;28;20200;-73
2022/05/26 06:59:13;;;;;;;0.97;0.70;;;;;;;17.52;63.66;100912.78;5013834;28;20209;-73
2022/05/26 07:01:39;;;;;;;0.90;0.73;;;;;;;17.58;62.57;100912.44;4994664;28;20264;-73
2022/05/26 07:04:06;;;;;;;0.87;0.70;;;;;;;17.60;62.23;100926.41;5011953;28;20564;-73
2022/05/26 07:06:32;;;;;;;1.50;0.60;;;;;;;17.66;61.72;100927.91;5012047;28;20220;-73
2022/05/26 07:08:59;;;;;;;1.23;0.80;;;;;;;17.72;61.98;100924.09;5012383;28;20587;-72
2022/05/26 07:11:25;;;;;;;1.10;0.90;;;;;;;17.66;61.75;100919.97;5011902;28;20822;-73
2022/05/26 07:13:52;;;;;;;0.87;0.70;;;;;;;17.75;63.58;100918.66;5010588;28;20211;-72
2022/05/26 07:16:20;;;;;;;1.07;0.70;;;;;;;17.84;61.59;100926.09;5009489;28;20227;-73
2022/05/26 07:18:47;;;;;;;0.70;0.70;;;;;;;17.94;62.81;100922.09;5012137;28;20230;-72
2022/05/26 07:21:13;;;;;;;1.50;0.80;;;;;;;18.14;63.44;100922.81;5012366;28;20200;-73
2022/05/26 07:23:41;;;;;;;0.70;0.70;;;;;;;18.30;62.04;100930.75;5008442;28;20197;-72
2022/05/26 07:26:08;;;;;;;4.77;0.80;;;;;;;18.25;60.19;100927.50;5007736;28;20231;-72
2022/05/26 07:28:35;;;;;;;1.47;0.70;;;;;;;18.38;61.40;100932.97;5007895;28;20385;-72
2022/05/26 07:31:02;;;;;;;1.00;0.60;;;;;;;18.38;61.54;100932.97;5007170;28;20212;-72
2022/05/26 07:33:29;;;;;;;2.03;0.73;;;;;;;18.40;61.51;100931.09;5008288;28;20255;-72
2022/05/26 07:35:56;;;;;;;0.83;0.80;;;;;;;18.50;59.80;100946.38;5006034;28;20220;-71
2022/05/26 07:41:17;;;;;;;0.80;0.80;;;;;;;18.58;60.66;100948.59;5001773;28;20215;-72
2022/05/26 07:43:47;;;;;;;0.80;0.80;;;;;;;18.33;59.04;100949.91;5007724;28;20216;-72
2022/05/26 07:46:14;;;;;;;1.00;0.90;;;;;;;18.27;60.18;100952.88;5006315;28;20232;-72
2022/05/26 07:48:42;;;;;;;0.70;0.70;;;;;;;18.15;59.96;100959.69;5006664;28;20545;-72
2022/05/26 07:51:08;;;;;;;2.00;0.90;;;;;;;18.02;59.71;100970.94;5003028;28;20228;-72
2022/05/26 07:53:35;;;;;;;0.77;0.70;;;;;;;17.87;60.76;100957.63;5004353;28;20196;-71
2022/05/26 07:56:02;;;;;;;1.27;0.73;;;;;;;17.81;60.71;100963.16;5002813;28;20712;-72
2022/05/26 07:58:28;;;;;;;0.80;0.80;;;;;;;17.84;59.91;100962.16;5004962;28;20196;-72
2022/05/26 08:00:55;;;;;;;0.70;0.70;;;;;;;17.99;61.89;100958.75;5004653;28;20200;-71
2022/05/26 08:03:21;;;;;;;1.97;0.90;;;;;;;18.03;61.75;100968.22;5001738;28;20498;-73
2022/05/26 08:05:49;;;;;;;0.90;0.73;;;;;;;17.96;60.45;100980.88;5002389;28;20236;-72
2022/05/26 08:08:16;;;;;;;0.50;0.50;;;;;;;17.85;60.77;100967.34;4999295;28;20194;-72
2022/05/26 08:10:43;;;;;;;1.70;0.70;;;;;;;17.85;61.95;100972.63;5004253;28;20222;-71
2022/05/26 08:13:09;;;;;;;0.77;0.70;;;;;;;17.87;60.18;100967.28;5002827;28;20580;-72
2022/05/26 08:15:36;;;;;;;1.40;0.90;;;;;;;18.02;60.48;100966.50;5004904;28;20605;-72
2022/05/26 08:18:02;;;;;;;0.90;0.80;;;;;;;18.15;60.65;100977.28;5016081;28;20296;-75
2022/05/26 08:20:29;;;;;;;1.40;0.80;;;;;;;18.31;60.21;100974.69;5002734;28;20301;-72
2022/05/26 08:22:56;;;;;;;2.10;0.80;;;;;;;18.42;60.24;100976.78;4999476;28;20209;-72
2022/05/26 08:25:23;;;;;;;0.70;0.70;;;;;;;18.54;60.75;100979.59;5005206;28;20216;-73
2022/05/26 08:27:49;;;;;;;3.00;0.70;;;;;;;18.43;59.63;100976.66;5003113;28;20196;-72
2022/05/26 08:30:16;;;;;;;0.70;0.60;;;;;;;18.50;60.06;100975.44;5001981;28;20200;-73
2022/05/26 08:32:43;;;;;;;0.90;0.80;;;;;;;18.57;59.12;100980.38;5004828;28;20197;-72
2022/05/26 08:35:11;;;;;;;0.87;0.80;;;;;;;18.67;59.86;100971.00;5002689;28;20209;-71
2022/05/26 08:37:38;;;;;;;0.80;0.67;;;;;;;18.63;60.32;100977.41;5004077;28;20221;-71
2022/05/26 08:40:08;;;;;;;0.77;0.60;;;;;;;18.63;59.62;100970.31;5002380;28;20205;-73
2022/05/26 08:42:36;;;;;;;1.00;0.90;;;;;;;18.77;61.38;100974.84;4998307;28;20454;-72
2022/05/26 08:45:07;;;;;;;0.70;0.70;;;;;;;18.96;60.35;100976.50;5005707;28;20240;-72
2022/05/26 08:47:36;;;;;;;1.70;1.00;;;;;;;19.25;61.88;100975.72;5002399;28;20195;-72
2022/05/26 08:50:08;;;;;;;0.60;0.60;;;;;;;19.29;59.82;100989.59;5010278;28;20212;-74
2022/05/26 08:52:38;;;;;;;0.80;0.80;;;;;;;18.98;59.57;100987.81;5009998;28;20211;-72
2022/05/26 08:55:11;;;;;;;0.77;0.77;;;;;;;18.81;60.14;100986.94;5008985;28;20208;-73
2022/05/26 08:57:43;;;;;;;0.80;0.80;;;;;;;18.88;60.11;100993.63;4996754;28;20223;-73
2022/05/26 09:00:13;;;;;;;0.60;0.60;;;;;;;19.10;59.96;100989.78;5000069;28;20236;-74
2022/05/26 09:02:39;;;;;;;2.60;0.80;;;;;;;19.15;59.21;100998.31;5003822;28;20200;-73
2022/05/26 09:05:11;;;;;;;0.70;0.70;;;;;;;19.01;57.73;101003.53;5003690;28;20565;-73
2022/05/26 09:13:15;;;;;;;5.13;1.07;;;;;;;18.42;60.51;101006.66;5004977;28;20208;-74
2022/05/26 09:15:42;;;;;;;1.30;0.70;;;;;;;18.39;60.35;101005.97;5007145;28;20220;-71
2022/05/26 09:18:14;;;;;;;1.00;0.90;;;;;;;18.58;60.31;101000.56;5002730;28;20193;-72
2022/05/26 09:20:43;;;;;;;0.70;0.70;;;;;;;18.80;60.10;100997.59;5004088;28;20204;-72
2022/05/26 09:23:16;;;;;;;0.73;0.73;;;;;;;19.03;60.17;101002.50;5002347;28;20200;-72
2022/05/26 09:25:50;;;;;;;1.80;0.77;;;;;;;19.17;59.64;100999.09;5006162;28;20268;-72
2022/05/26 09:28:27;;;;;;;1.13;1.10;;;;;;;19.09;58.58;100999.50;4998505;28;20697;-72
2022/05/26 09:30:54;;;;;;;1.63;0.83;;;;;;;19.25;59.02;100996.00;5005974;28;20208;-72
2022/05/26 09:33:28;;;;;;;2.80;0.80;;;;;;;19.51;58.33;101010.38;5002788;28;20224;-72
2022/05/26 09:36:07;;;;;;;1.13;1.03;;;;;;;19.36;58.52;101008.63;5000321;28;20343;-73
2022/05/26 09:38:34;;;;;;;1.93;0.90;;;;;;;19.46;59.98;101005.34;4999234;28;20219;-72
2022/05/26 09:41:08;;;;;;;0.70;0.70;;;;;;;19.57;58.12;101010.03;5005702;28;20204;-72
2022/05/26 09:43:34;;;;;;;0.60;0.60;;;;;;;19.45;59.09;101014.25;5006627;28;20676;-72
2022/05/26 09:46:12;;;;;;;0.60;0.60;;;;;;;19.55;60.51;101009.25;5007557;28;20299;-72
2022/05/26 09:48:39;;;;;;;1.57;0.80;;;;;;;19.49;60.87;101018.41;4990886;28;20241;-74
2022/05/26 09:51:11;;;;;;;0.70;0.70;;;;;;;19.45;58.98;101018.66;5009415;28;20311;-72
2022/05/26 09:53:39;;;;;;;1.10;0.70;;;;;;;19.24;59.02;101021.59;5003027;28;20264;-72
2022/05/26 09:56:08;;;;;;;1.33;1.00;;;;;;;19.26;58.35;101021.50;5004692;28;20248;-72
2022/05/26 09:58:39;;;;;;;1.37;0.60;;;;;;;19.41;57.64;101025.06;5008990;28;20216;-72
2022/05/26 10:01:27;;;;;;;0.60;0.60;;;;;;;19.72;60.06;101013.59;5007051;28;20228;-72
2022/05/26 10:04:05;;;;;;;0.73;0.73;;;;;;;19.76;58.10;101012.50;5007437;28;20213;-73
2022/05/26 10:06:38;;;;;;;1.50;0.90;;;;;;;19.49;57.79;101004.34;5007783;28;20220;-73
2022/05/26 10:09:18;;;;;;;1.10;0.87;;;;;;;19.39;57.46;101019.03;5008187;28;20208;-72
2022/05/26 10:11:57;;;;;;;0.90;0.90;;;;;;;19.34;57.91;101021.91;5010935;28;20558;-72
2022/05/26 10:14:36;;;;;;;0.90;0.83;;;;;;;19.36;58.25;101022.69;5007165;28;20208;-71
2022/05/26 10:17:10;;;;;;;0.80;0.70;;;;;;;19.57;58.55;101023.25;5008855;28;20211;-72
2022/05/26 10:19:56;;;;;;;1.13;0.90;;;;;;;19.61;59.82;101011.56;5007516;28;20568;-72
2022/05/26 10:22:34;;;;;;;1.03;0.73;;;;;;;19.62;59.73;100994.75;5007891;28;20208;-74
2022/05/26 10:25:14;;;;;;;1.03;0.80;;;;;;;19.77;58.30;101008.91;5006449;28;20220;-73
2022/05/26 10:27:54;;;;;;;0.80;0.80;;;;;;;19.82;59.42;101009.50;5004473;28;20201;-73
2022/05/26 10:30:32;;;;;;;0.93;0.70;;;;;;;19.96;57.76;101016.59;5003604;28;20243;-73
2022/05/26 10:33:28;;;;;;;1.13;0.77;;;;;;;20.04;56.68;101016.16;4996453;28;20236;-73
2022/05/26 10:36:06;;;;;;;0.70;0.63;;;;;;;20.24;55.88;101007.00;5007321;28;20221;-75
2022/05/26 10:38:53;;;;;;;1.13;0.70;;;;;;;20.07;56.48;100997.44;5001985;28;20439;-72
2022/05/26 10:41:27;;;;;;;0.97;0.93;;;;;;;19.93;56.63;100997.41;5005542;28;20696;-73
2022/05/26 10:44:00;;;;;;;1.47;0.80;;;;;;;19.79;55.25;101008.81;5007630;28;20208;-73
2022/05/26 10:46:28;;;;;;;0.97;0.80;;;;;;;19.43;56.70;101007.31;5005132;28;20712;-72
2022/05/26 10:49:04;;;;;;;0.80;0.80;;;;;;;19.21;56.98;101003.28;5002279;28;20584;-72
2022/05/26 10:51:35;;;;;;;1.33;1.23;;;;;;;19.02;58.34;101007.88;4984134;28;20207;-72
2022/05/26 10:54:09;;;;;;;1.27;0.87;;;;;;;18.85;58.07;101008.78;5002842;28;20208;-75
2022/05/26 10:56:43;;;;;;;0.97;0.83;;;;;;;18.84;58.31;101009.75;5002850;28;20239;-74
2022/05/26 10:59:21;;;;;;;1.60;0.77;;;;;;;18.90;58.62;101018.16;5004432;28;20200;-73
2022/05/26 11:01:52;;;;;;;2.43;0.90;;;;;;;19.11;58.97;101025.84;5001839;28;20266;-74
2022/05/26 11:04:25;;;;;;;1.97;0.97;;;;;;;19.44;57.73;101006.41;5006186;28;20208;-74
2022/05/26 11:06:56;;;;;;;1.10;1.00;;;;;;;19.60;57.64;101012.50;5006132;28;20628;-73
2022/05/26 11:09:34;;;;;;;1.13;0.80;;;;;;;19.54;57.46;101012.88;5005473;28;20205;-73
2022/05/26 11:12:05;;;;;;;0.97;0.80;;;;;;;19.54;58.56;101012.88;5004535;28;20207;-73
2022/05/26 11:17:38;;;;;;;1.00;0.90;;;;;;;18.98;58.83;101016.88;5005721;28;20609;-73
2022/05/26 11:20:08;;;;;;;0.73;0.73;;;;;;;18.74;59.87;101026.03;5005909;28;20748;-75
2022/05/26 11:22:36;;;;;;;1.20;0.90;;;;;;;18.61;60.27;101021.50;5005368;28;20207;-72
2022/05/26 11:25:02;;;;;;;0.90;0.90;;;;;;;18.43;60.46;101026.81;5007342;28;20232;-72
2022/05/26 11:27:35;;;;;;;2.20;0.83;;;;;;;18.29;61.03;101032.84;5003678;28;20283;-73
2022/05/26 11:36:07;;;;;;;1.90;1.10;;;;;;;18.28;60.98;101025.00;5000165;28;20219;-73
2022/05/26 11:38:32;;;;;;;0.93;0.80;;;;;;;19.06;62.80;101019.97;5004852;28;20565;-72
2022/05/26 11:41:06;;;;;;;1.30;1.03;;;;;;;19.31;59.50;101030.00;5006834;28;20299;-72
2022/05/26 11:43:41;;;;;;;2.07;1.03;;;;;;;19.60;60.28;101023.06;5005750;28;20572;-72
2022/05/26 11:46:11;;;;;;;1.57;1.00;;;;;;;19.85;57.83;101016.38;5005858;28;20306;-73
2022/05/26 11:48:43;;;;;;;0.93;0.80;;;;;;;19.92;59.84;101009.78;5004401;28;20662;-73
2022/05/26 11:51:30;;;;;;;1.50;0.90;;;;;;;19.84;58.22;101015.53;5005059;28;20204;-72
2022/05/26 11:53:57;;;;;;;0.97;0.90;;;;;;;19.70;58.47;101009.31;5006282;28;20665;-72
2022/05/26 11:56:49;;;;;;;1.43;0.90;;;;;;;19.61;58.29;101008.06;5003904;28;20604;-72
2022/05/26 11:59:26;;;;;;;0.80;0.80;;;;;;;19.79;59.18;101006.19;5006450;28;20205;-72
2022/05/26 12:02:28;;;;;;;1.83;1.00;;;;;;;19.88;58.19;101000.34;5007942;28;20600;-72
2022/05/26 12:04:54;;;;;;;1.07;0.70;;;;;;;19.96;57.21;101013.94;5007478;28;20242;-73
2022/05/26 12:07:36;;;;;;;2.13;0.90;;;;;;;20.01;56.92;101001.28;5009709;28;20569;-72
2022/05/26 12:10:18;;;;;;;0.80;0.70;;;;;;;20.07;58.66;101000.09;5007255;28;20560;-72
2022/05/26 12:12:45;;;;;;;0.80;0.80;;;;;;;20.11;58.56;101003.41;5003592;28;20242;-72
2022/05/26 12:15:20;;;;;;;1.93;0.80;;;;;;;20.06;56.77;101027.50;5006620;28;20231;-73
2022/05/26 12:17:50;;;;;;;0.93;0.90;;;;;;;19.86;56.00;101018.09;5004460;28;20204;-73
2022/05/26 12:20:42;;;;;;;0.70;0.70;;;;;;;19.80;57.25;101014.00;5006728;28;20663;-73